sensor_id;sensor_type;location;lat;lon;timestamp;P1;durP1;ratioP1;P2;durP2;ratioP2
40731;SDS011;26420;52.256;9.096;2022-09-27T00:03:17;3.67;;;3.00;;
40731;SDS011;26420;52.256;9.096;2022-09-27T00:08:19;5.97;;;3.60;;
40731;SDS011;26420;52.256;9.096;2022-09-27T00:13:21;6.00;;;4.25;;
40731;SDS011;26420;52.256;9.096;2022-09-27T00:18:22;6.78;;;4.30;;
40731;SDS011;26420;52.256;9.096;2022-09-27T00:23:24;6.18;;;4.10;;
40731;SDS011;26420;52.256;9.096;2022-09-27T00:28:25;6.00;;;3.92;;
40731;SDS011;26420;52.256;9.096;2022-09-27T00:33:28;7.60;;;4.78;;
40731;SDS011;26420;52.256;9.096;2022-09-27T00:38:30;6.80;;;4.85;;
40731;SDS011;26420;52.256;9.096;2022-09-27T00:43:42;9.07;;;5.72;;
40731;SDS011;26420;52.256;9.096;2022-09-27T00:48:45;6.53;;;5.43;;
40731;SDS011;26420;52.256;9.096;2022-09-27T00:53:49;7.25;;;5.13;;
40731;SDS011;26420;52.256;9.096;2022-09-27T00:58:55;5.90;;;4.70;;
40731;SDS011;26420;52.256;9.096;2022-09-27T01:04:06;6.68;;;5.13;;
40731;SDS011;26420;52.256;9.096;2022-09-27T01:09:09;4.15;;;3.50;;
40731;SDS011;26420;52.256;9.096;2022-09-27T01:14:22;4.28;;;3.38;;
40731;SDS011;26420;52.256;9.096;2022-09-27T01:25:42;4.53;;;3.30;;
40731;SDS011;26420;52.256;9.096;2022-09-27T01:52:32;3.65;;;2.78;;
40731;SDS011;26420;52.256;9.096;2022-09-27T01:57:39;3.40;;;2.50;;
40731;SDS011;26420;52.256;9.096;2022-09-27T02:02:57;2.88;;;2.13;;
40731;SDS011;26420;52.256;9.096;2022-09-27T02:14:07;3.75;;;2.58;;
40731;SDS011;26420;52.256;9.096;2022-09-27T02:19:39;4.43;;;2.67;;
40731;SDS011;26420;52.256;9.096;2022-09-27T02:25:18;3.13;;;2.58;;
40731;SDS011;26420;52.256;9.096;2022-09-27T02:30:24;7.10;;;3.80;;
40731;SDS011;26420;52.256;9.096;2022-09-27T02:35:34;7.82;;;5.30;;
40731;SDS011;26420;52.256;9.096;2022-09-27T02:40:41;9.70;;;5.78;;
40731;SDS011;26420;52.256;9.096;2022-09-27T02:51:15;11.73;;;6.43;;
40731;SDS011;26420;52.256;9.096;2022-09-27T02:57:06;11.30;;;6.60;;
40731;SDS011;26420;52.256;9.096;2022-09-27T03:02:10;11.60;;;6.63;;
40731;SDS011;26420;52.256;9.096;2022-09-27T03:07:33;12.95;;;6.80;;
40731;SDS011;26420;52.256;9.096;2022-09-27T03:12:35;10.93;;;6.35;;
40731;SDS011;26420;52.256;9.096;2022-09-27T03:17:37;12.98;;;5.45;;
40731;SDS011;26420;52.256;9.096;2022-09-27T03:22:57;12.40;;;6.63;;
40731;SDS011;26420;52.256;9.096;2022-09-27T03:27:58;9.05;;;4.53;;
40731;SDS011;26420;52.256;9.096;2022-09-27T03:33:00;8.88;;;4.15;;
40731;SDS011;26420;52.256;9.096;2022-09-27T03:38:19;9.73;;;3.85;;
40731;SDS011;26420;52.256;9.096;2022-09-27T03:43:20;7.50;;;3.47;;
40731;SDS011;26420;52.256;9.096;2022-09-27T03:48:22;7.60;;;2.65;;
40731;SDS011;26420;52.256;9.096;2022-09-27T03:53:28;5.13;;;2.67;;
40731;SDS011;26420;52.256;9.096;2022-09-27T03:58:30;5.60;;;2.55;;
40731;SDS011;26420;52.256;9.096;2022-09-27T04:03:32;6.78;;;2.80;;
40731;SDS011;26420;52.256;9.096;2022-09-27T04:08:52;4.82;;;2.30;;
40731;SDS011;26420;52.256;9.096;2022-09-27T04:13:56;3.88;;;2.58;;
40731;SDS011;26420;52.256;9.096;2022-09-27T04:18:59;5.28;;;2.08;;
40731;SDS011;26420;52.256;9.096;2022-09-27T04:24:07;4.20;;;1.92;;
40731;SDS011;26420;52.256;9.096;2022-09-27T04:29:12;3.30;;;1.90;;
40731;SDS011;26420;52.256;9.096;2022-09-27T04:34:21;4.60;;;2.15;;
40731;SDS011;26420;52.256;9.096;2022-09-27T04:39:47;6.68;;;2.22;;
40731;SDS011;26420;52.256;9.096;2022-09-27T04:44:49;5.97;;;2.50;;
40731;SDS011;26420;52.256;9.096;2022-09-27T04:49:51;5.47;;;2.63;;
40731;SDS011;26420;52.256;9.096;2022-09-27T04:54:52;6.80;;;2.63;;
40731;SDS011;26420;52.256;9.096;2022-09-27T04:59:54;9.23;;;3.00;;
40731;SDS011;26420;52.256;9.096;2022-09-27T05:04:56;6.57;;;2.75;;
40731;SDS011;26420;52.256;9.096;2022-09-27T05:10:03;6.70;;;2.80;;
40731;SDS011;26420;52.256;9.096;2022-09-27T05:15:05;9.27;;;3.08;;
40731;SDS011;26420;52.256;9.096;2022-09-27T05:20:26;6.75;;;2.70;;
40731;SDS011;26420;52.256;9.096;2022-09-27T05:25:33;6.28;;;1.52;;
40731;SDS011;26420;52.256;9.096;2022-09-27T05:30:35;5.55;;;2.17;;
40731;SDS011;26420;52.256;9.096;2022-09-27T05:35:41;4.67;;;2.03;;
40731;SDS011;26420;52.256;9.096;2022-09-27T05:40:46;5.85;;;2.10;;
40731;SDS011;26420;52.256;9.096;2022-09-27T05:45:50;3.67;;;1.80;;
40731;SDS011;26420;52.256;9.096;2022-09-27T05:50:56;5.10;;;2.25;;
40731;SDS011;26420;52.256;9.096;2022-09-27T05:56:01;5.75;;;2.22;;
40731;SDS011;26420;52.256;9.096;2022-09-27T06:01:24;3.63;;;2.00;;
40731;SDS011;26420;52.256;9.096;2022-09-27T06:06:46;3.83;;;2.00;;
40731;SDS011;26420;52.256;9.096;2022-09-27T06:11:49;6.85;;;1.92;;
40731;SDS011;26420;52.256;9.096;2022-09-27T06:16:51;2.88;;;2.08;;
40731;SDS011;26420;52.256;9.096;2022-09-27T06:21:57;3.15;;;1.83;;
40731;SDS011;26420;52.256;9.096;2022-09-27T06:27:07;3.67;;;1.80;;
40731;SDS011;26420;52.256;9.096;2022-09-27T06:32:19;2.65;;;1.55;;
40731;SDS011;26420;52.256;9.096;2022-09-27T06:37:28;2.08;;;1.40;;
40731;SDS011;26420;52.256;9.096;2022-09-27T06:42:30;5.60;;;1.63;;
40731;SDS011;26420;52.256;9.096;2022-09-27T06:47:49;4.30;;;1.70;;
40731;SDS011;26420;52.256;9.096;2022-09-27T06:52:59;3.58;;;1.52;;
40731;SDS011;26420;52.256;9.096;2022-09-27T06:58:01;5.28;;;1.65;;
40731;SDS011;26420;52.256;9.096;2022-09-27T07:03:41;3.38;;;1.65;;
40731;SDS011;26420;52.256;9.096;2022-09-27T07:09:10;4.28;;;2.40;;
40731;SDS011;26420;52.256;9.096;2022-09-27T07:14:12;4.78;;;2.08;;
40731;SDS011;26420;52.256;9.096;2022-09-27T07:19:14;4.90;;;2.50;;
40731;SDS011;26420;52.256;9.096;2022-09-27T07:24:16;5.70;;;2.22;;
40731;SDS011;26420;52.256;9.096;2022-09-27T07:29:18;3.30;;;1.80;;
40731;SDS011;26420;52.256;9.096;2022-09-27T07:34:22;2.50;;;1.65;;
40731;SDS011;26420;52.256;9.096;2022-09-27T07:39:25;4.05;;;1.75;;
40731;SDS011;26420;52.256;9.096;2022-09-27T07:44:26;5.63;;;2.47;;
40731;SDS011;26420;52.256;9.096;2022-09-27T07:49:44;3.78;;;1.73;;
40731;SDS011;26420;52.256;9.096;2022-09-27T07:55:02;5.85;;;1.42;;
40731;SDS011;26420;52.256;9.096;2022-09-27T08:00:13;6.43;;;1.50;;
40731;SDS011;26420;52.256;9.096;2022-09-27T08:05:18;3.17;;;1.60;;
40731;SDS011;26420;52.256;9.096;2022-09-27T08:10:20;4.68;;;1.77;;
40731;SDS011;26420;52.256;9.096;2022-09-27T08:15:22;2.38;;;1.48;;
40731;SDS011;26420;52.256;9.096;2022-09-27T08:20:24;1.73;;;1.60;;
40731;SDS011;26420;52.256;9.096;2022-09-27T08:25:53;4.38;;;1.50;;
40731;SDS011;26420;52.256;9.096;2022-09-27T08:31:21;4.93;;;1.20;;
40731;SDS011;26420;52.256;9.096;2022-09-27T08:36:27;3.80;;;1.03;;
40731;SDS011;26420;52.256;9.096;2022-09-27T08:52:12;3.35;;;1.10;;
40731;SDS011;26420;52.256;9.096;2022-09-27T08:57:28;4.40;;;1.20;;
40731;SDS011;26420;52.256;9.096;2022-09-27T09:02:30;5.35;;;1.70;;
40731;SDS011;26420;52.256;9.096;2022-09-27T09:12:54;3.05;;;1.42;;
40731;SDS011;26420;52.256;9.096;2022-09-27T09:18:29;2.75;;;1.10;;
40731;SDS011;26420;52.256;9.096;2022-09-27T09:24:23;3.33;;;1.25;;
40731;SDS011;26420;52.256;9.096;2022-09-27T09:34:37;1.30;;;0.88;;
40731;SDS011;26420;52.256;9.096;2022-09-27T09:40:18;3.58;;;0.82;;
40731;SDS011;26420;52.256;9.096;2022-09-27T09:45:29;2.40;;;0.80;;
40731;SDS011;26420;52.256;9.096;2022-09-27T09:50:42;1.60;;;0.57;;
40731;SDS011;26420;52.256;9.096;2022-09-27T09:55:59;1.98;;;0.80;;
40731;SDS011;26420;52.256;9.096;2022-09-27T10:06:29;1.77;;;0.75;;
40731;SDS011;26420;52.256;9.096;2022-09-27T10:11:39;2.08;;;0.90;;
40731;SDS011;26420;52.256;9.096;2022-09-27T10:16:54;1.70;;;0.75;;
40731;SDS011;26420;52.256;9.096;2022-09-27T10:22:08;0.85;;;0.73;;
40731;SDS011;26420;52.256;9.096;2022-09-27T10:27:14;2.08;;;0.80;;
40731;SDS011;26420;52.256;9.096;2022-09-27T10:32:32;2.53;;;0.90;;
40731;SDS011;26420;52.256;9.096;2022-09-27T10:43:31;3.70;;;1.02;;
40731;SDS011;26420;52.256;9.096;2022-09-27T10:49:25;1.85;;;0.90;;
40731;SDS011;26420;52.256;9.096;2022-09-27T10:54:38;3.47;;;1.30;;
40731;SDS011;26420;52.256;9.096;2022-09-27T10:59:42;3.00;;;0.82;;
40731;SDS011;26420;52.256;9.096;2022-09-27T11:05:01;3.45;;;0.68;;
40731;SDS011;26420;52.256;9.096;2022-09-27T11:15:29;2.30;;;0.88;;
40731;SDS011;26420;52.256;9.096;2022-09-27T11:37:11;1.88;;;0.50;;
40731;SDS011;26420;52.256;9.096;2022-09-27T11:54:03;1.05;;;0.55;;
40731;SDS011;26420;52.256;9.096;2022-09-27T11:59:12;6.10;;;1.50;;
40731;SDS011;26420;52.256;9.096;2022-09-27T12:10:00;1.77;;;0.80;;
40731;SDS011;26420;52.256;9.096;2022-09-27T12:15:16;1.50;;;0.88;;
40731;SDS011;26420;52.256;9.096;2022-09-27T12:20:29;0.88;;;0.40;;
40731;SDS011;26420;52.256;9.096;2022-09-27T12:25:37;2.85;;;0.60;;
40731;SDS011;26420;52.256;9.096;2022-09-27T12:30:53;1.67;;;0.90;;
40731;SDS011;26420;52.256;9.096;2022-09-27T12:36:20;1.52;;;0.85;;
40731;SDS011;26420;52.256;9.096;2022-09-27T12:41:29;1.85;;;0.70;;
40731;SDS011;26420;52.256;9.096;2022-09-27T12:52:29;1.23;;;0.57;;
40731;SDS011;26420;52.256;9.096;2022-09-27T13:08:36;4.65;;;1.10;;
40731;SDS011;26420;52.256;9.096;2022-09-27T13:14:04;1.17;;;0.70;;
40731;SDS011;26420;52.256;9.096;2022-09-27T13:24:42;0.93;;;0.70;;
40731;SDS011;26420;52.256;9.096;2022-09-27T13:35:18;3.05;;;1.38;;
40731;SDS011;26420;52.256;9.096;2022-09-27T13:40:39;2.40;;;1.20;;
40731;SDS011;26420;52.256;9.096;2022-09-27T13:45:49;0.80;;;0.65;;
40731;SDS011;26420;52.256;9.096;2022-09-27T13:51:02;1.50;;;0.70;;
40731;SDS011;26420;52.256;9.096;2022-09-27T14:01:49;1.75;;;0.70;;
40731;SDS011;26420;52.256;9.096;2022-09-27T14:07:00;1.27;;;0.40;;
40731;SDS011;26420;52.256;9.096;2022-09-27T14:12:07;0.80;;;0.70;;
40731;SDS011;26420;52.256;9.096;2022-09-27T14:17:13;1.83;;;0.60;;
40731;SDS011;26420;52.256;9.096;2022-09-27T14:22:22;1.35;;;0.80;;
40731;SDS011;26420;52.256;9.096;2022-09-27T14:27:35;0.98;;;0.70;;
40731;SDS011;26420;52.256;9.096;2022-09-27T14:33:25;2.22;;;0.60;;
40731;SDS011;26420;52.256;9.096;2022-09-27T14:38:36;1.48;;;0.70;;
40731;SDS011;26420;52.256;9.096;2022-09-27T14:43:53;2.03;;;0.77;;
40731;SDS011;26420;52.256;9.096;2022-09-27T14:48:56;2.38;;;0.70;;
40731;SDS011;26420;52.256;9.096;2022-09-27T14:53:59;0.73;;;0.60;;
40731;SDS011;26420;52.256;9.096;2022-09-27T14:59:14;1.38;;;0.60;;
40731;SDS011;26420;52.256;9.096;2022-09-27T15:04:23;3.00;;;0.77;;
40731;SDS011;26420;52.256;9.096;2022-09-27T15:09:25;0.98;;;0.90;;
40731;SDS011;26420;52.256;9.096;2022-09-27T15:14:33;1.98;;;0.70;;
40731;SDS011;26420;52.256;9.096;2022-09-27T15:19:54;1.15;;;0.90;;
40731;SDS011;26420;52.256;9.096;2022-09-27T15:25:32;0.77;;;0.70;;
40731;SDS011;26420;52.256;9.096;2022-09-27T15:30:37;1.10;;;0.98;;
40731;SDS011;26420;52.256;9.096;2022-09-27T15:35:45;3.28;;;0.95;;
40731;SDS011;26420;52.256;9.096;2022-09-27T15:40:56;2.42;;;1.15;;
40731;SDS011;26420;52.256;9.096;2022-09-27T15:46:01;1.45;;;1.23;;
40731;SDS011;26420;52.256;9.096;2022-09-27T15:51:36;1.55;;;0.90;;
40731;SDS011;26420;52.256;9.096;2022-09-27T15:56:40;1.40;;;1.30;;
40731;SDS011;26420;52.256;9.096;2022-09-27T16:01:42;2.40;;;1.35;;
40731;SDS011;26420;52.256;9.096;2022-09-27T16:06:44;0.80;;;0.77;;
40731;SDS011;26420;52.256;9.096;2022-09-27T16:11:46;0.88;;;0.80;;
40731;SDS011;26420;52.256;9.096;2022-09-27T16:16:50;1.38;;;0.80;;
40731;SDS011;26420;52.256;9.096;2022-09-27T16:21:54;2.20;;;0.90;;
40731;SDS011;26420;52.256;9.096;2022-09-27T16:26:56;2.15;;;1.30;;
40731;SDS011;26420;52.256;9.096;2022-09-27T16:31:58;2.22;;;1.17;;
40731;SDS011;26420;52.256;9.096;2022-09-27T16:37:00;2.10;;;1.00;;
40731;SDS011;26420;52.256;9.096;2022-09-27T16:42:05;1.30;;;1.00;;
40731;SDS011;26420;52.256;9.096;2022-09-27T16:47:07;0.93;;;0.70;;
40731;SDS011;26420;52.256;9.096;2022-09-27T16:52:09;1.88;;;1.10;;
40731;SDS011;26420;52.256;9.096;2022-09-27T16:57:11;5.80;;;1.70;;
40731;SDS011;26420;52.256;9.096;2022-09-27T17:02:13;2.55;;;2.05;;
40731;SDS011;26420;52.256;9.096;2022-09-27T17:07:14;1.77;;;1.40;;
40731;SDS011;26420;52.256;9.096;2022-09-27T17:12:16;1.38;;;1.05;;
40731;SDS011;26420;52.256;9.096;2022-09-27T17:17:18;3.08;;;1.48;;
40731;SDS011;26420;52.256;9.096;2022-09-27T17:22:20;3.33;;;1.83;;
40731;SDS011;26420;52.256;9.096;2022-09-27T17:27:21;6.45;;;5.22;;
40731;SDS011;26420;52.256;9.096;2022-09-27T17:32:26;4.88;;;2.40;;
40731;SDS011;26420;52.256;9.096;2022-09-27T17:37:27;4.38;;;2.20;;
40731;SDS011;26420;52.256;9.096;2022-09-27T17:42:29;4.50;;;1.90;;
40731;SDS011;26420;52.256;9.096;2022-09-27T17:47:31;1.88;;;1.77;;
40731;SDS011;26420;52.256;9.096;2022-09-27T17:52:51;2.25;;;1.90;;
40731;SDS011;26420;52.256;9.096;2022-09-27T17:57:54;3.33;;;2.10;;
40731;SDS011;26420;52.256;9.096;2022-09-27T18:02:55;2.17;;;1.83;;
40731;SDS011;26420;52.256;9.096;2022-09-27T18:07:57;4.78;;;2.35;;
40731;SDS011;26420;52.256;9.096;2022-09-27T18:12:59;2.90;;;2.25;;
40731;SDS011;26420;52.256;9.096;2022-09-27T18:18:01;4.18;;;2.10;;
40731;SDS011;26420;52.256;9.096;2022-09-27T18:23:05;2.78;;;2.22;;
40731;SDS011;26420;52.256;9.096;2022-09-27T18:28:06;4.90;;;2.70;;
40731;SDS011;26420;52.256;9.096;2022-09-27T18:33:08;3.55;;;2.38;;
40731;SDS011;26420;52.256;9.096;2022-09-27T18:38:10;4.60;;;3.17;;
40731;SDS011;26420;52.256;9.096;2022-09-27T18:43:12;5.28;;;2.58;;
40731;SDS011;26420;52.256;9.096;2022-09-27T18:48:13;3.45;;;2.13;;
40731;SDS011;26420;52.256;9.096;2022-09-27T18:53:15;3.53;;;2.53;;
40731;SDS011;26420;52.256;9.096;2022-09-27T18:58:17;3.33;;;2.13;;
40731;SDS011;26420;52.256;9.096;2022-09-27T19:03:19;3.95;;;2.50;;
40731;SDS011;26420;52.256;9.096;2022-09-27T19:08:20;5.22;;;2.70;;
40731;SDS011;26420;52.256;9.096;2022-09-27T19:13:22;2.50;;;2.10;;
40731;SDS011;26420;52.256;9.096;2022-09-27T19:18:30;4.07;;;2.67;;
40731;SDS011;26420;52.256;9.096;2022-09-27T19:23:32;3.58;;;2.58;;
40731;SDS011;26420;52.256;9.096;2022-09-27T19:28:35;4.07;;;2.70;;
40731;SDS011;26420;52.256;9.096;2022-09-27T19:33:38;3.58;;;2.80;;
40731;SDS011;26420;52.256;9.096;2022-09-27T19:38:41;2.80;;;2.33;;
40731;SDS011;26420;52.256;9.096;2022-09-27T19:43:43;5.18;;;2.90;;
40731;SDS011;26420;52.256;9.096;2022-09-27T19:48:50;2.65;;;2.00;;
40731;SDS011;26420;52.256;9.096;2022-09-27T19:53:52;4.68;;;2.30;;
40731;SDS011;26420;52.256;9.096;2022-09-27T19:58:54;3.88;;;2.40;;
40731;SDS011;26420;52.256;9.096;2022-09-27T20:03:56;4.18;;;2.35;;
40731;SDS011;26420;52.256;9.096;2022-09-27T20:08:59;3.95;;;2.40;;
40731;SDS011;26420;52.256;9.096;2022-09-27T20:14:03;3.95;;;2.20;;
40731;SDS011;26420;52.256;9.096;2022-09-27T20:19:04;5.45;;;2.30;;
40731;SDS011;26420;52.256;9.096;2022-09-27T20:24:06;3.00;;;2.05;;
40731;SDS011;26420;52.256;9.096;2022-09-27T20:29:08;4.20;;;2.38;;
40731;SDS011;26420;52.256;9.096;2022-09-27T20:34:12;3.45;;;2.38;;
40731;SDS011;26420;52.256;9.096;2022-09-27T20:39:14;2.92;;;2.33;;
40731;SDS011;26420;52.256;9.096;2022-09-27T20:44:18;4.53;;;2.60;;
40731;SDS011;26420;52.256;9.096;2022-09-27T20:49:20;4.70;;;2.45;;
40731;SDS011;26420;52.256;9.096;2022-09-27T20:54:22;3.83;;;2.38;;
40731;SDS011;26420;52.256;9.096;2022-09-27T20:59:23;6.05;;;2.28;;
40731;SDS011;26420;52.256;9.096;2022-09-27T21:04:25;4.07;;;2.17;;
40731;SDS011;26420;52.256;9.096;2022-09-27T21:09:27;3.88;;;1.90;;
40731;SDS011;26420;52.256;9.096;2022-09-27T21:14:28;6.28;;;2.38;;
40731;SDS011;26420;52.256;9.096;2022-09-27T21:19:30;5.57;;;2.55;;
40731;SDS011;26420;52.256;9.096;2022-09-27T21:24:32;2.72;;;2.08;;
40731;SDS011;26420;52.256;9.096;2022-09-27T21:29:33;3.65;;;2.50;;
40731;SDS011;26420;52.256;9.096;2022-09-27T21:34:35;7.53;;;3.45;;
40731;SDS011;26420;52.256;9.096;2022-09-27T21:39:37;4.80;;;3.13;;
40731;SDS011;26420;52.256;9.096;2022-09-27T21:44:38;7.68;;;3.28;;
40731;SDS011;26420;52.256;9.096;2022-09-27T21:49:40;6.72;;;4.88;;
40731;SDS011;26420;52.256;9.096;2022-09-27T21:54:42;8.27;;;5.07;;
40731;SDS011;26420;52.256;9.096;2022-09-27T21:59:43;8.68;;;5.30;;
40731;SDS011;26420;52.256;9.096;2022-09-27T22:04:45;8.55;;;5.78;;
40731;SDS011;26420;52.256;9.096;2022-09-27T22:09:49;10.68;;;6.60;;
40731;SDS011;26420;52.256;9.096;2022-09-27T22:14:50;12.30;;;7.35;;
40731;SDS011;26420;52.256;9.096;2022-09-27T22:19:52;12.55;;;7.45;;
40731;SDS011;26420;52.256;9.096;2022-09-27T22:24:54;12.88;;;8.25;;
40731;SDS011;26420;52.256;9.096;2022-09-27T22:29:56;14.38;;;8.25;;
40731;SDS011;26420;52.256;9.096;2022-09-27T22:34:57;12.27;;;7.75;;
40731;SDS011;26420;52.256;9.096;2022-09-27T22:39:59;12.85;;;7.57;;
40731;SDS011;26420;52.256;9.096;2022-09-27T22:45:01;13.82;;;7.00;;
40731;SDS011;26420;52.256;9.096;2022-09-27T22:50:03;11.60;;;7.45;;
40731;SDS011;26420;52.256;9.096;2022-09-27T22:55:05;14.90;;;7.35;;
40731;SDS011;26420;52.256;9.096;2022-09-27T23:00:07;12.38;;;7.30;;
40731;SDS011;26420;52.256;9.096;2022-09-27T23:05:09;11.93;;;7.15;;
40731;SDS011;26420;52.256;9.096;2022-09-27T23:10:11;12.60;;;7.40;;
40731;SDS011;26420;52.256;9.096;2022-09-27T23:15:13;11.25;;;7.10;;
40731;SDS011;26420;52.256;9.096;2022-09-27T23:20:15;12.35;;;7.70;;
40731;SDS011;26420;52.256;9.096;2022-09-27T23:25:17;10.15;;;6.82;;
40731;SDS011;26420;52.256;9.096;2022-09-27T23:30:19;9.65;;;6.68;;
40731;SDS011;26420;52.256;9.096;2022-09-27T23:35:22;12.30;;;6.70;;
40731;SDS011;26420;52.256;9.096;2022-09-27T23:40:24;12.23;;;6.97;;
40731;SDS011;26420;52.256;9.096;2022-09-27T23:45:26;9.75;;;6.35;;
40731;SDS011;26420;52.256;9.096;2022-09-27T23:50:28;10.27;;;6.28;;
40731;SDS011;26420;52.256;9.096;2022-09-27T23:55:32;11.27;;;6.80;;
